sensor_id;sensor_type;location;lat;lon;timestamp;P1;durP1;ratioP1;P2;durP2;ratioP2
55254;SDS011;41118;44.634;11.182;2024-03-17T00:01:06;3.00;;;0.40;;
55254;SDS011;41118;44.634;11.182;2024-03-17T00:03:32;1.35;;;0.43;;
55254;SDS011;41118;44.634;11.182;2024-03-17T00:05:59;4.53;;;0.70;;
55254;SDS011;41118;44.634;11.182;2024-03-17T00:08:25;2.05;;;0.88;;
55254;SDS011;41118;44.634;11.182;2024-03-17T00:10:54;4.15;;;0.85;;
55254;SDS011;41118;44.634;11.182;2024-03-17T00:13:21;3.65;;;0.55;;
55254;SDS011;41118;44.634;11.182;2024-03-17T00:15:48;1.17;;;0.35;;
55254;SDS011;41118;44.634;11.182;2024-03-17T00:18:14;3.95;;;1.15;;
55254;SDS011;41118;44.634;11.182;2024-03-17T00:20:40;3.88;;;0.47;;
55254;SDS011;41118;44.634;11.182;2024-03-17T00:23:06;3.40;;;1.27;;
55254;SDS011;41118;44.634;11.182;2024-03-17T00:25:34;3.28;;;0.47;;
55254;SDS011;41118;44.634;11.182;2024-03-17T00:28:00;3.08;;;0.40;;
55254;SDS011;41118;44.634;11.182;2024-03-17T00:30:26;1.52;;;0.50;;
55254;SDS011;41118;44.634;11.182;2024-03-17T00:32:52;1.70;;;0.50;;
55254;SDS011;41118;44.634;11.182;2024-03-17T00:35:19;2.83;;;0.73;;
55254;SDS011;41118;44.634;11.182;2024-03-17T00:37:48;2.80;;;0.50;;
55254;SDS011;41118;44.634;11.182;2024-03-17T00:40:14;4.38;;;0.40;;
55254;SDS011;41118;44.634;11.182;2024-03-17T00:42:42;4.53;;;0.50;;
55254;SDS011;41118;44.634;11.182;2024-03-17T00:45:08;4.25;;;0.40;;
55254;SDS011;41118;44.634;11.182;2024-03-17T00:47:35;3.45;;;0.68;;
55254;SDS011;41118;44.634;11.182;2024-03-17T00:50:01;3.33;;;0.40;;
55254;SDS011;41118;44.634;11.182;2024-03-17T00:52:29;1.80;;;0.50;;
55254;SDS011;41118;44.634;11.182;2024-03-17T00:54:55;1.90;;;0.40;;
55254;SDS011;41118;44.634;11.182;2024-03-17T00:57:21;2.65;;;0.45;;
55254;SDS011;41118;44.634;11.182;2024-03-17T00:59:47;2.05;;;0.40;;
55254;SDS011;41118;44.634;11.182;2024-03-17T01:02:16;3.20;;;0.50;;
55254;SDS011;41118;44.634;11.182;2024-03-17T01:04:42;5.35;;;0.60;;
55254;SDS011;41118;44.634;11.182;2024-03-17T01:07:11;1.35;;;0.40;;
55254;SDS011;41118;44.634;11.182;2024-03-17T01:09:38;3.38;;;0.45;;
55254;SDS011;41118;44.634;11.182;2024-03-17T01:12:04;2.03;;;0.40;;
55254;SDS011;41118;44.634;11.182;2024-03-17T01:14:30;1.80;;;0.50;;
55254;SDS011;41118;44.634;11.182;2024-03-17T01:16:58;5.25;;;0.40;;
55254;SDS011;41118;44.634;11.182;2024-03-17T01:19:25;2.60;;;0.52;;
55254;SDS011;41118;44.634;11.182;2024-03-17T01:21:51;2.17;;;0.47;;
55254;SDS011;41118;44.634;11.182;2024-03-17T01:24:18;3.15;;;0.52;;
55254;SDS011;41118;44.634;11.182;2024-03-17T01:26:44;1.67;;;0.45;;
55254;SDS011;41118;44.634;11.182;2024-03-17T01:29:10;4.45;;;0.50;;
55254;SDS011;41118;44.634;11.182;2024-03-17T01:31:36;3.47;;;0.40;;
55254;SDS011;41118;44.634;11.182;2024-03-17T01:34:03;8.82;;;0.68;;
55254;SDS011;41118;44.634;11.182;2024-03-17T01:36:29;1.90;;;0.60;;
55254;SDS011;41118;44.634;11.182;2024-03-17T01:38:55;2.72;;;0.50;;
55254;SDS011;41118;44.634;11.182;2024-03-17T01:41:21;3.95;;;0.52;;
55254;SDS011;41118;44.634;11.182;2024-03-17T01:43:48;2.42;;;0.47;;
55254;SDS011;41118;44.634;11.182;2024-03-17T01:46:15;4.65;;;0.50;;
55254;SDS011;41118;44.634;11.182;2024-03-17T01:48:41;1.40;;;0.38;;
55254;SDS011;41118;44.634;11.182;2024-03-17T01:51:08;2.88;;;0.43;;
55254;SDS011;41118;44.634;11.182;2024-03-17T01:53:35;2.03;;;0.40;;
55254;SDS011;41118;44.634;11.182;2024-03-17T01:56:01;1.67;;;0.50;;
55254;SDS011;41118;44.634;11.182;2024-03-17T01:58:27;3.33;;;0.40;;
55254;SDS011;41118;44.634;11.182;2024-03-17T02:00:56;3.08;;;0.50;;
55254;SDS011;41118;44.634;11.182;2024-03-17T02:03:22;2.22;;;0.43;;
55254;SDS011;41118;44.634;11.182;2024-03-17T02:05:48;2.03;;;0.60;;
55254;SDS011;41118;44.634;11.182;2024-03-17T02:08:15;7.45;;;0.73;;
55254;SDS011;41118;44.634;11.182;2024-03-17T02:10:41;3.38;;;0.90;;
55254;SDS011;41118;44.634;11.182;2024-03-17T02:13:08;2.65;;;0.60;;
55254;SDS011;41118;44.634;11.182;2024-03-17T02:15:34;2.83;;;0.70;;
55254;SDS011;41118;44.634;11.182;2024-03-17T02:18:00;2.53;;;0.43;;
55254;SDS011;41118;44.634;11.182;2024-03-17T02:20:26;1.65;;;0.50;;
55254;SDS011;41118;44.634;11.182;2024-03-17T02:23:11;1.63;;;0.40;;
55254;SDS011;41118;44.634;11.182;2024-03-17T02:25:37;2.17;;;0.50;;
55254;SDS011;41118;44.634;11.182;2024-03-17T02:28:04;2.58;;;0.40;;
55254;SDS011;41118;44.634;11.182;2024-03-17T02:30:31;2.20;;;0.40;;
55254;SDS011;41118;44.634;11.182;2024-03-17T02:32:57;2.75;;;0.93;;
55254;SDS011;41118;44.634;11.182;2024-03-17T02:35:23;2.10;;;0.63;;
55254;SDS011;41118;44.634;11.182;2024-03-17T02:37:50;21.80;;;1.75;;
55254;SDS011;41118;44.634;11.182;2024-03-17T02:40:16;2.97;;;0.30;;
55254;SDS011;41118;44.634;11.182;2024-03-17T02:42:44;3.65;;;0.40;;
55254;SDS011;41118;44.634;11.182;2024-03-17T02:45:10;1.20;;;0.38;;
55254;SDS011;41118;44.634;11.182;2024-03-17T02:47:37;1.45;;;0.30;;
55254;SDS011;41118;44.634;11.182;2024-03-17T02:50:03;1.23;;;0.50;;
55254;SDS011;41118;44.634;11.182;2024-03-17T02:52:29;1.00;;;0.30;;
55254;SDS011;41118;44.634;11.182;2024-03-17T02:54:55;4.30;;;0.60;;
55254;SDS011;41118;44.634;11.182;2024-03-17T02:57:22;2.83;;;0.95;;
55254;SDS011;41118;44.634;11.182;2024-03-17T02:59:50;2.42;;;0.30;;
55254;SDS011;41118;44.634;11.182;2024-03-17T03:02:16;2.25;;;0.40;;
55254;SDS011;41118;44.634;11.182;2024-03-17T03:04:43;1.33;;;0.30;;
55254;SDS011;41118;44.634;11.182;2024-03-17T03:07:09;1.80;;;0.30;;
55254;SDS011;41118;44.634;11.182;2024-03-17T03:09:35;2.05;;;0.32;;
55254;SDS011;41118;44.634;11.182;2024-03-17T03:12:01;1.27;;;0.40;;
55254;SDS011;41118;44.634;11.182;2024-03-17T03:14:28;2.67;;;0.38;;
55254;SDS011;41118;44.634;11.182;2024-03-17T03:16:54;2.67;;;0.60;;
55254;SDS011;41118;44.634;11.182;2024-03-17T03:19:20;1.60;;;0.30;;
55254;SDS011;41118;44.634;11.182;2024-03-17T03:21:46;3.35;;;0.32;;
55254;SDS011;41118;44.634;11.182;2024-03-17T03:24:15;1.13;;;0.40;;
55254;SDS011;41118;44.634;11.182;2024-03-17T03:26:42;2.22;;;0.40;;
55254;SDS011;41118;44.634;11.182;2024-03-17T03:29:08;1.38;;;0.30;;
55254;SDS011;41118;44.634;11.182;2024-03-17T03:31:35;2.92;;;1.05;;
55254;SDS011;41118;44.634;11.182;2024-03-17T03:34:04;4.75;;;1.35;;
55254;SDS011;41118;44.634;11.182;2024-03-17T03:36:33;2.20;;;0.30;;
55254;SDS011;41118;44.634;11.182;2024-03-17T03:38:59;1.58;;;0.40;;
55254;SDS011;41118;44.634;11.182;2024-03-17T03:41:25;1.75;;;0.32;;
55254;SDS011;41118;44.634;11.182;2024-03-17T03:43:51;2.53;;;0.50;;
55254;SDS011;41118;44.634;11.182;2024-03-17T03:46:17;2.70;;;0.32;;
55254;SDS011;41118;44.634;11.182;2024-03-17T03:48:43;1.10;;;0.30;;
55254;SDS011;41118;44.634;11.182;2024-03-17T03:51:09;1.23;;;0.40;;
55254;SDS011;41118;44.634;11.182;2024-03-17T03:53:36;2.35;;;0.40;;
55254;SDS011;41118;44.634;11.182;2024-03-17T03:56:03;5.88;;;0.50;;
55254;SDS011;41118;44.634;11.182;2024-03-17T03:58:33;2.50;;;0.40;;
55254;SDS011;41118;44.634;11.182;2024-03-17T04:01:00;1.85;;;0.40;;
55254;SDS011;41118;44.634;11.182;2024-03-17T04:03:27;1.33;;;0.30;;
55254;SDS011;41118;44.634;11.182;2024-03-17T04:06:00;1.70;;;0.40;;
55254;SDS011;41118;44.634;11.182;2024-03-17T04:08:26;2.92;;;0.50;;
55254;SDS011;41118;44.634;11.182;2024-03-17T04:10:52;1.20;;;0.28;;
55254;SDS011;41118;44.634;11.182;2024-03-17T04:13:18;3.05;;;0.40;;
55254;SDS011;41118;44.634;11.182;2024-03-17T04:15:44;1.38;;;0.43;;
55254;SDS011;41118;44.634;11.182;2024-03-17T04:18:10;2.45;;;0.40;;
55254;SDS011;41118;44.634;11.182;2024-03-17T04:20:36;1.65;;;0.40;;
55254;SDS011;41118;44.634;11.182;2024-03-17T04:23:03;1.67;;;0.30;;
55254;SDS011;41118;44.634;11.182;2024-03-17T04:25:29;2.13;;;0.30;;
55254;SDS011;41118;44.634;11.182;2024-03-17T04:27:55;2.83;;;0.38;;
55254;SDS011;41118;44.634;11.182;2024-03-17T04:30:21;1.40;;;0.43;;
55254;SDS011;41118;44.634;11.182;2024-03-17T04:32:47;1.33;;;0.30;;
55254;SDS011;41118;44.634;11.182;2024-03-17T04:35:12;2.35;;;0.30;;
55254;SDS011;41118;44.634;11.182;2024-03-17T04:37:38;2.20;;;0.40;;
55254;SDS011;41118;44.634;11.182;2024-03-17T04:40:06;1.60;;;0.30;;
55254;SDS011;41118;44.634;11.182;2024-03-17T04:42:34;2.00;;;0.50;;
55254;SDS011;41118;44.634;11.182;2024-03-17T04:45:00;1.38;;;0.40;;
55254;SDS011;41118;44.634;11.182;2024-03-17T04:47:26;2.40;;;0.40;;
55254;SDS011;41118;44.634;11.182;2024-03-17T04:49:52;3.30;;;0.50;;
55254;SDS011;41118;44.634;11.182;2024-03-17T04:52:18;0.82;;;0.20;;
55254;SDS011;41118;44.634;11.182;2024-03-17T04:54:45;3.67;;;0.30;;
55254;SDS011;41118;44.634;11.182;2024-03-17T04:57:11;1.10;;;0.30;;
55254;SDS011;41118;44.634;11.182;2024-03-17T04:59:38;1.70;;;0.40;;
55254;SDS011;41118;44.634;11.182;2024-03-17T05:02:04;1.10;;;0.30;;
55254;SDS011;41118;44.634;11.182;2024-03-17T05:04:30;1.08;;;0.40;;
55254;SDS011;41118;44.634;11.182;2024-03-17T05:06:56;1.55;;;0.32;;
55254;SDS011;41118;44.634;11.182;2024-03-17T05:09:22;1.67;;;0.20;;
55254;SDS011;41118;44.634;11.182;2024-03-17T05:11:49;1.20;;;0.40;;
55254;SDS011;41118;44.634;11.182;2024-03-17T05:14:19;1.63;;;0.70;;
55254;SDS011;41118;44.634;11.182;2024-03-17T05:16:48;1.05;;;0.30;;
55254;SDS011;41118;44.634;11.182;2024-03-17T05:19:14;1.30;;;0.32;;
55254;SDS011;41118;44.634;11.182;2024-03-17T05:21:40;1.25;;;0.35;;
55254;SDS011;41118;44.634;11.182;2024-03-17T05:24:06;1.75;;;0.30;;
55254;SDS011;41118;44.634;11.182;2024-03-17T05:26:32;2.13;;;0.40;;
55254;SDS011;41118;44.634;11.182;2024-03-17T05:28:58;1.23;;;0.20;;
55254;SDS011;41118;44.634;11.182;2024-03-17T05:31:24;1.50;;;0.40;;
55254;SDS011;41118;44.634;11.182;2024-03-17T05:33:50;3.47;;;0.40;;
55254;SDS011;41118;44.634;11.182;2024-03-17T05:36:17;1.65;;;0.50;;
55254;SDS011;41118;44.634;11.182;2024-03-17T05:38:45;1.50;;;0.35;;
55254;SDS011;41118;44.634;11.182;2024-03-17T05:41:11;1.60;;;0.30;;
55254;SDS011;41118;44.634;11.182;2024-03-17T05:43:38;1.25;;;0.40;;
55254;SDS011;41118;44.634;11.182;2024-03-17T05:46:05;1.92;;;0.40;;
55254;SDS011;41118;44.634;11.182;2024-03-17T05:48:31;2.08;;;0.35;;
55254;SDS011;41118;44.634;11.182;2024-03-17T05:50:58;1.60;;;0.30;;
55254;SDS011;41118;44.634;11.182;2024-03-17T05:53:27;1.85;;;0.30;;
55254;SDS011;41118;44.634;11.182;2024-03-17T05:55:54;1.05;;;0.30;;
55254;SDS011;41118;44.634;11.182;2024-03-17T05:58:20;2.35;;;0.30;;
55254;SDS011;41118;44.634;11.182;2024-03-17T06:00:47;1.33;;;0.30;;
55254;SDS011;41118;44.634;11.182;2024-03-17T06:03:14;1.63;;;0.40;;
55254;SDS011;41118;44.634;11.182;2024-03-17T06:05:40;1.20;;;0.40;;
55254;SDS011;41118;44.634;11.182;2024-03-17T06:08:07;2.00;;;0.50;;
55254;SDS011;41118;44.634;11.182;2024-03-17T06:10:34;2.00;;;0.40;;
55254;SDS011;41118;44.634;11.182;2024-03-17T06:13:00;1.13;;;0.60;;
55254;SDS011;41118;44.634;11.182;2024-03-17T06:15:26;2.22;;;0.30;;
55254;SDS011;41118;44.634;11.182;2024-03-17T06:17:52;2.22;;;0.43;;
55254;SDS011;41118;44.634;11.182;2024-03-17T06:20:22;2.00;;;0.40;;
55254;SDS011;41118;44.634;11.182;2024-03-17T06:22:49;1.30;;;0.40;;
55254;SDS011;41118;44.634;11.182;2024-03-17T06:25:15;1.98;;;0.40;;
55254;SDS011;41118;44.634;11.182;2024-03-17T06:27:42;1.80;;;0.47;;
55254;SDS011;41118;44.634;11.182;2024-03-17T06:30:14;6.70;;;0.65;;
55254;SDS011;41118;44.634;11.182;2024-03-17T06:32:41;6.97;;;1.00;;
55254;SDS011;41118;44.634;11.182;2024-03-17T06:35:07;7.90;;;1.75;;
55254;SDS011;41118;44.634;11.182;2024-03-17T06:37:34;6.47;;;2.25;;
55254;SDS011;41118;44.634;11.182;2024-03-17T06:40:00;2.95;;;0.60;;
55254;SDS011;41118;44.634;11.182;2024-03-17T06:42:28;3.13;;;0.38;;
55254;SDS011;41118;44.634;11.182;2024-03-17T06:44:54;1.45;;;0.30;;
55254;SDS011;41118;44.634;11.182;2024-03-17T06:47:20;3.65;;;0.43;;
55254;SDS011;41118;44.634;11.182;2024-03-17T06:49:46;1.73;;;0.50;;
55254;SDS011;41118;44.634;11.182;2024-03-17T06:52:12;3.15;;;0.60;;
55254;SDS011;41118;44.634;11.182;2024-03-17T06:54:38;2.42;;;0.50;;
55254;SDS011;41118;44.634;11.182;2024-03-17T06:57:04;3.90;;;0.40;;
55254;SDS011;41118;44.634;11.182;2024-03-17T06:59:33;3.08;;;0.73;;
55254;SDS011;41118;44.634;11.182;2024-03-17T07:02:00;2.30;;;0.40;;
55254;SDS011;41118;44.634;11.182;2024-03-17T07:04:26;2.47;;;0.50;;
55254;SDS011;41118;44.634;11.182;2024-03-17T07:06:52;1.38;;;0.40;;
55254;SDS011;41118;44.634;11.182;2024-03-17T07:09:18;1.27;;;0.40;;
55254;SDS011;41118;44.634;11.182;2024-03-17T07:11:44;1.27;;;0.30;;
55254;SDS011;41118;44.634;11.182;2024-03-17T07:14:10;1.55;;;0.40;;
55254;SDS011;41118;44.634;11.182;2024-03-17T07:16:36;5.47;;;0.52;;
55254;SDS011;41118;44.634;11.182;2024-03-17T07:19:03;3.05;;;0.40;;
55254;SDS011;41118;44.634;11.182;2024-03-17T07:21:30;2.20;;;0.93;;
55254;SDS011;41118;44.634;11.182;2024-03-17T07:23:56;2.45;;;0.40;;
55254;SDS011;41118;44.634;11.182;2024-03-17T07:26:29;3.28;;;0.50;;
55254;SDS011;41118;44.634;11.182;2024-03-17T07:28:55;4.13;;;0.90;;
55254;SDS011;41118;44.634;11.182;2024-03-17T07:31:21;4.22;;;0.65;;
55254;SDS011;41118;44.634;11.182;2024-03-17T07:33:47;2.85;;;0.60;;
55254;SDS011;41118;44.634;11.182;2024-03-17T07:36:14;4.90;;;0.60;;
55254;SDS011;41118;44.634;11.182;2024-03-17T07:38:40;4.22;;;0.60;;
55254;SDS011;41118;44.634;11.182;2024-03-17T07:41:07;2.50;;;0.52;;
55254;SDS011;41118;44.634;11.182;2024-03-17T07:43:37;2.10;;;0.50;;
55254;SDS011;41118;44.634;11.182;2024-03-17T07:46:07;3.13;;;0.70;;
55254;SDS011;41118;44.634;11.182;2024-03-17T07:48:35;3.00;;;0.60;;
55254;SDS011;41118;44.634;11.182;2024-03-17T07:51:02;2.45;;;0.40;;
55254;SDS011;41118;44.634;11.182;2024-03-17T07:53:32;6.07;;;0.50;;
55254;SDS011;41118;44.634;11.182;2024-03-17T07:55:59;2.30;;;0.50;;
55254;SDS011;41118;44.634;11.182;2024-03-17T07:58:26;8.43;;;1.02;;
55254;SDS011;41118;44.634;11.182;2024-03-17T08:00:52;6.72;;;0.93;;
55254;SDS011;41118;44.634;11.182;2024-03-17T08:03:19;3.97;;;0.70;;
55254;SDS011;41118;44.634;11.182;2024-03-17T08:05:51;3.45;;;0.63;;
55254;SDS011;41118;44.634;11.182;2024-03-17T08:08:17;3.40;;;0.93;;
55254;SDS011;41118;44.634;11.182;2024-03-17T08:10:44;7.50;;;0.77;;
55254;SDS011;41118;44.634;11.182;2024-03-17T08:13:13;4.35;;;1.00;;
55254;SDS011;41118;44.634;11.182;2024-03-17T08:15:41;3.70;;;0.75;;
55254;SDS011;41118;44.634;11.182;2024-03-17T08:18:07;3.25;;;0.88;;
55254;SDS011;41118;44.634;11.182;2024-03-17T08:20:36;2.83;;;0.47;;
55254;SDS011;41118;44.634;11.182;2024-03-17T08:23:02;6.18;;;1.00;;
55254;SDS011;41118;44.634;11.182;2024-03-17T08:25:29;10.15;;;1.13;;
55254;SDS011;41118;44.634;11.182;2024-03-17T08:27:55;4.15;;;0.73;;
55254;SDS011;41118;44.634;11.182;2024-03-17T08:30:21;3.03;;;1.05;;
55254;SDS011;41118;44.634;11.182;2024-03-17T08:32:47;3.10;;;0.57;;
55254;SDS011;41118;44.634;11.182;2024-03-17T08:35:14;2.90;;;0.85;;
55254;SDS011;41118;44.634;11.182;2024-03-17T08:37:40;3.83;;;0.60;;
55254;SDS011;41118;44.634;11.182;2024-03-17T08:40:06;6.45;;;1.80;;
55254;SDS011;41118;44.634;11.182;2024-03-17T08:42:33;2.88;;;0.90;;
55254;SDS011;41118;44.634;11.182;2024-03-17T08:44:59;4.60;;;0.93;;
55254;SDS011;41118;44.634;11.182;2024-03-17T08:47:25;2.60;;;0.60;;
55254;SDS011;41118;44.634;11.182;2024-03-17T08:49:51;2.67;;;0.77;;
55254;SDS011;41118;44.634;11.182;2024-03-17T08:52:17;2.67;;;0.65;;
55254;SDS011;41118;44.634;11.182;2024-03-17T08:54:47;4.88;;;0.50;;
55254;SDS011;41118;44.634;11.182;2024-03-17T08:57:13;2.20;;;0.50;;
55254;SDS011;41118;44.634;11.182;2024-03-17T08:59:40;3.50;;;0.50;;
55254;SDS011;41118;44.634;11.182;2024-03-17T09:02:07;2.63;;;0.40;;
55254;SDS011;41118;44.634;11.182;2024-03-17T09:04:37;6.22;;;1.52;;
55254;SDS011;41118;44.634;11.182;2024-03-17T09:07:03;2.70;;;0.40;;
55254;SDS011;41118;44.634;11.182;2024-03-17T09:09:29;3.40;;;0.73;;
55254;SDS011;41118;44.634;11.182;2024-03-17T09:11:56;4.15;;;0.40;;
55254;SDS011;41118;44.634;11.182;2024-03-17T09:14:22;1.88;;;0.45;;
55254;SDS011;41118;44.634;11.182;2024-03-17T09:16:48;1.40;;;0.40;;
55254;SDS011;41118;44.634;11.182;2024-03-17T09:19:14;1.92;;;0.35;;
55254;SDS011;41118;44.634;11.182;2024-03-17T09:21:41;3.00;;;0.55;;
55254;SDS011;41118;44.634;11.182;2024-03-17T09:24:07;5.60;;;0.40;;
55254;SDS011;41118;44.634;11.182;2024-03-17T09:26:33;1.63;;;0.40;;
55254;SDS011;41118;44.634;11.182;2024-03-17T09:29:03;6.18;;;0.45;;
55254;SDS011;41118;44.634;11.182;2024-03-17T09:31:29;4.22;;;0.30;;
55254;SDS011;41118;44.634;11.182;2024-03-17T09:33:58;3.83;;;0.40;;
55254;SDS011;41118;44.634;11.182;2024-03-17T09:36:24;2.95;;;0.30;;
55254;SDS011;41118;44.634;11.182;2024-03-17T09:38:50;2.15;;;0.30;;
55254;SDS011;41118;44.634;11.182;2024-03-17T09:41:20;1.20;;;0.30;;
55254;SDS011;41118;44.634;11.182;2024-03-17T09:43:47;1.55;;;0.30;;
55254;SDS011;41118;44.634;11.182;2024-03-17T09:46:14;3.08;;;0.35;;
55254;SDS011;41118;44.634;11.182;2024-03-17T09:48:41;1.75;;;0.30;;
55254;SDS011;41118;44.634;11.182;2024-03-17T09:51:08;3.35;;;0.30;;
55254;SDS011;41118;44.634;11.182;2024-03-17T09:53:42;5.07;;;0.60;;
55254;SDS011;41118;44.634;11.182;2024-03-17T09:56:11;3.17;;;0.40;;
55254;SDS011;41118;44.634;11.182;2024-03-17T09:58:41;1.77;;;0.40;;
55254;SDS011;41118;44.634;11.182;2024-03-17T10:01:07;2.75;;;1.05;;
55254;SDS011;41118;44.634;11.182;2024-03-17T10:03:46;1.55;;;0.20;;
55254;SDS011;41118;44.634;11.182;2024-03-17T10:06:23;1.02;;;0.20;;
55254;SDS011;41118;44.634;11.182;2024-03-17T10:08:51;1.52;;;0.20;;
55254;SDS011;41118;44.634;11.182;2024-03-17T10:11:18;1.00;;;0.20;;
55254;SDS011;41118;44.634;11.182;2024-03-17T10:13:45;2.60;;;0.30;;
55254;SDS011;41118;44.634;11.182;2024-03-17T10:16:24;3.03;;;0.30;;
55254;SDS011;41118;44.634;11.182;2024-03-17T10:18:51;1.27;;;0.35;;
55254;SDS011;41118;44.634;11.182;2024-03-17T10:21:31;1.10;;;0.30;;
55254;SDS011;41118;44.634;11.182;2024-03-17T10:24:07;1.35;;;0.20;;
55254;SDS011;41118;44.634;11.182;2024-03-17T10:26:37;1.00;;;0.20;;
55254;SDS011;41118;44.634;11.182;2024-03-17T10:29:04;1.17;;;0.20;;
55254;SDS011;41118;44.634;11.182;2024-03-17T10:31:30;1.27;;;0.20;;
55254;SDS011;41118;44.634;11.182;2024-03-17T10:34:03;1.73;;;0.25;;
55254;SDS011;41118;44.634;11.182;2024-03-17T10:36:29;1.23;;;0.20;;
55254;SDS011;41118;44.634;11.182;2024-03-17T10:38:55;2.53;;;0.20;;
55254;SDS011;41118;44.634;11.182;2024-03-17T10:41:21;2.28;;;0.20;;
55254;SDS011;41118;44.634;11.182;2024-03-17T10:43:49;1.42;;;0.20;;
55254;SDS011;41118;44.634;11.182;2024-03-17T10:46:15;1.50;;;0.30;;
55254;SDS011;41118;44.634;11.182;2024-03-17T10:48:41;1.02;;;0.20;;
55254;SDS011;41118;44.634;11.182;2024-03-17T10:51:08;1.00;;;0.28;;
55254;SDS011;41118;44.634;11.182;2024-03-17T10:53:38;4.70;;;0.52;;
55254;SDS011;41118;44.634;11.182;2024-03-17T10:56:04;1.73;;;0.20;;
55254;SDS011;41118;44.634;11.182;2024-03-17T10:58:38;0.80;;;0.20;;
55254;SDS011;41118;44.634;11.182;2024-03-17T11:01:11;2.20;;;0.50;;
55254;SDS011;41118;44.634;11.182;2024-03-17T11:03:38;4.90;;;1.25;;
55254;SDS011;41118;44.634;11.182;2024-03-17T11:06:05;9.48;;;1.80;;
55254;SDS011;41118;44.634;11.182;2024-03-17T11:08:31;3.95;;;0.45;;
55254;SDS011;41118;44.634;11.182;2024-03-17T11:10:59;2.85;;;0.50;;
55254;SDS011;41118;44.634;11.182;2024-03-17T11:13:29;4.03;;;1.05;;
55254;SDS011;41118;44.634;11.182;2024-03-17T11:15:55;2.75;;;0.50;;
55254;SDS011;41118;44.634;11.182;2024-03-17T11:18:31;6.55;;;2.55;;
55254;SDS011;41118;44.634;11.182;2024-03-17T11:23:27;5.43;;;1.58;;
55254;SDS011;41118;44.634;11.182;2024-03-17T11:25:54;8.50;;;2.35;;
55254;SDS011;41118;44.634;11.182;2024-03-17T11:31:05;4.18;;;1.45;;
55254;SDS011;41118;44.634;11.182;2024-03-17T11:49:24;7.43;;;1.95;;
55254;SDS011;41118;44.634;11.182;2024-03-17T11:51:51;4.28;;;0.70;;
55254;SDS011;41118;44.634;11.182;2024-03-17T11:54:18;4.70;;;0.50;;
55254;SDS011;41118;44.634;11.182;2024-03-17T11:56:45;3.08;;;0.52;;
55254;SDS011;41118;44.634;11.182;2024-03-17T11:59:11;4.53;;;0.43;;
55254;SDS011;41118;44.634;11.182;2024-03-17T12:01:37;3.55;;;0.50;;
55254;SDS011;41118;44.634;11.182;2024-03-17T12:04:05;4.47;;;0.73;;
55254;SDS011;41118;44.634;11.182;2024-03-17T12:06:31;5.40;;;0.73;;
55254;SDS011;41118;44.634;11.182;2024-03-17T12:11:43;5.82;;;0.80;;
55254;SDS011;41118;44.634;11.182;2024-03-17T12:14:16;5.32;;;0.90;;
55254;SDS011;41118;44.634;11.182;2024-03-17T12:16:50;7.45;;;0.90;;
55254;SDS011;41118;44.634;11.182;2024-03-17T12:19:17;2.17;;;0.63;;
55254;SDS011;41118;44.634;11.182;2024-03-17T12:21:47;5.35;;;1.40;;
55254;SDS011;41118;44.634;11.182;2024-03-17T12:24:15;9.57;;;1.98;;
55254;SDS011;41118;44.634;11.182;2024-03-17T12:26:42;6.25;;;1.55;;
55254;SDS011;41118;44.634;11.182;2024-03-17T12:29:24;3.80;;;1.00;;
55254;SDS011;41118;44.634;11.182;2024-03-17T12:31:52;3.50;;;0.85;;
55254;SDS011;41118;44.634;11.182;2024-03-17T12:34:19;8.30;;;0.98;;
55254;SDS011;41118;44.634;11.182;2024-03-17T12:36:45;5.97;;;1.08;;
55254;SDS011;41118;44.634;11.182;2024-03-17T12:39:18;4.03;;;0.80;;
55254;SDS011;41118;44.634;11.182;2024-03-17T12:41:45;7.88;;;1.40;;
55254;SDS011;41118;44.634;11.182;2024-03-17T12:44:21;5.70;;;1.33;;
55254;SDS011;41118;44.634;11.182;2024-03-17T12:46:47;8.30;;;1.65;;
55254;SDS011;41118;44.634;11.182;2024-03-17T12:49:13;7.60;;;2.35;;
55254;SDS011;41118;44.634;11.182;2024-03-17T12:51:39;3.75;;;1.20;;
55254;SDS011;41118;44.634;11.182;2024-03-17T12:54:11;6.70;;;2.15;;
55254;SDS011;41118;44.634;11.182;2024-03-17T12:56:37;6.63;;;1.33;;
55254;SDS011;41118;44.634;11.182;2024-03-17T12:59:22;7.25;;;1.20;;
55254;SDS011;41118;44.634;11.182;2024-03-17T13:02:10;6.85;;;0.93;;
55254;SDS011;41118;44.634;11.182;2024-03-17T13:04:36;6.00;;;1.45;;
55254;SDS011;41118;44.634;11.182;2024-03-17T13:07:09;7.90;;;2.83;;
55254;SDS011;41118;44.634;11.182;2024-03-17T13:09:35;8.60;;;1.95;;
55254;SDS011;41118;44.634;11.182;2024-03-17T13:12:01;8.10;;;1.60;;
55254;SDS011;41118;44.634;11.182;2024-03-17T13:14:27;9.07;;;1.55;;
55254;SDS011;41118;44.634;11.182;2024-03-17T13:16:53;2.58;;;0.73;;
55254;SDS011;41118;44.634;11.182;2024-03-17T13:19:20;8.82;;;2.35;;
55254;SDS011;41118;44.634;11.182;2024-03-17T13:21:46;3.83;;;0.70;;
55254;SDS011;41118;44.634;11.182;2024-03-17T13:24:12;5.80;;;1.27;;
55254;SDS011;41118;44.634;11.182;2024-03-17T13:26:38;4.38;;;1.42;;
55254;SDS011;41118;44.634;11.182;2024-03-17T13:29:04;6.47;;;1.30;;
55254;SDS011;41118;44.634;11.182;2024-03-17T13:31:30;6.97;;;1.52;;
55254;SDS011;41118;44.634;11.182;2024-03-17T13:33:56;7.00;;;2.15;;
55254;SDS011;41118;44.634;11.182;2024-03-17T13:36:22;5.82;;;1.42;;
55254;SDS011;41118;44.634;11.182;2024-03-17T13:38:52;6.75;;;2.15;;
55254;SDS011;41118;44.634;11.182;2024-03-17T13:41:18;11.32;;;1.70;;
55254;SDS011;41118;44.634;11.182;2024-03-17T13:43:45;10.10;;;2.20;;
55254;SDS011;41118;44.634;11.182;2024-03-17T13:46:11;9.32;;;2.28;;
55254;SDS011;41118;44.634;11.182;2024-03-17T13:48:37;14.07;;;2.28;;
55254;SDS011;41118;44.634;11.182;2024-03-17T13:51:03;6.28;;;0.93;;
55254;SDS011;41118;44.634;11.182;2024-03-17T13:53:30;5.85;;;1.63;;
55254;SDS011;41118;44.634;11.182;2024-03-17T13:55:56;4.15;;;1.02;;
55254;SDS011;41118;44.634;11.182;2024-03-17T13:58:22;7.40;;;1.83;;
55254;SDS011;41118;44.634;11.182;2024-03-17T14:00:48;13.30;;;3.47;;
55254;SDS011;41118;44.634;11.182;2024-03-17T14:03:14;4.95;;;1.10;;
55254;SDS011;41118;44.634;11.182;2024-03-17T14:05:41;5.82;;;1.42;;
55254;SDS011;41118;44.634;11.182;2024-03-17T14:08:07;6.47;;;0.93;;
55254;SDS011;41118;44.634;11.182;2024-03-17T14:10:34;2.58;;;0.70;;
55254;SDS011;41118;44.634;11.182;2024-03-17T14:13:00;6.75;;;1.42;;
55254;SDS011;41118;44.634;11.182;2024-03-17T14:15:26;5.38;;;1.10;;
55254;SDS011;41118;44.634;11.182;2024-03-17T14:17:53;6.10;;;1.63;;
55254;SDS011;41118;44.634;11.182;2024-03-17T14:20:19;6.82;;;2.05;;
55254;SDS011;41118;44.634;11.182;2024-03-17T14:22:46;10.32;;;4.00;;
55254;SDS011;41118;44.634;11.182;2024-03-17T14:27:47;6.05;;;1.45;;
55254;SDS011;41118;44.634;11.182;2024-03-17T14:30:15;6.28;;;1.95;;
55254;SDS011;41118;44.634;11.182;2024-03-17T14:32:43;8.32;;;1.13;;
55254;SDS011;41118;44.634;11.182;2024-03-17T14:35:12;6.70;;;1.40;;
55254;SDS011;41118;44.634;11.182;2024-03-17T14:37:38;9.07;;;1.42;;
55254;SDS011;41118;44.634;11.182;2024-03-17T14:40:07;7.25;;;1.95;;
55254;SDS011;41118;44.634;11.182;2024-03-17T14:42:39;7.72;;;1.92;;
55254;SDS011;41118;44.634;11.182;2024-03-17T14:45:06;14.48;;;3.00;;
55254;SDS011;41118;44.634;11.182;2024-03-17T14:47:33;9.40;;;3.47;;
55254;SDS011;41118;44.634;11.182;2024-03-17T14:49:59;11.45;;;3.05;;
55254;SDS011;41118;44.634;11.182;2024-03-17T14:52:29;12.50;;;3.53;;
55254;SDS011;41118;44.634;11.182;2024-03-17T14:54:56;9.30;;;2.65;;
55254;SDS011;41118;44.634;11.182;2024-03-17T14:57:23;8.88;;;2.85;;
55254;SDS011;41118;44.634;11.182;2024-03-17T14:59:49;14.52;;;3.50;;